Time;durP1;ratioP1;P1;durP2;ratioP2;P2;SDS_P1;SDS_P2;PMS_P1;PMS_P2;Temp;Humidity;BMP_temperature;BMP_pressure;BME280_temperature;BME280_humidity;BME280_pressure;Samples;Min_cycle;Max_cycle;Signal;HPM_P1;HPM_P2
2022/10/25 00:05:04;;;;;;;1999.90;999.90;;;14.00;99.90;;;;;;6648948;88;20261;-78
2022/10/25 00:15:05;;;;;;;1999.90;999.90;;;13.80;99.90;;;;;;6648458;88;20370;-78
2022/10/25 00:25:07;;;;;;;1999.90;999.90;;;13.80;99.90;;;;;;6655378;89;20189;-78
2022/10/25 00:35:08;;;;;;;1999.90;999.90;;;13.70;99.90;;;;;;6657651;88;20197;-77
2022/10/25 00:45:29;;;;;;;1999.90;999.90;;;13.60;99.90;;;;;;6649148;89;20307;-77
2022/10/25 00:55:31;;;;;;;1999.90;999.90;;;13.60;99.90;;;;;;6661702;89;20198;-77
2022/10/25 01:05:33;;;;;;;1999.90;999.90;;;13.40;99.90;;;;;;6660714;88;20951;-77
2022/10/25 01:15:55;;;;;;;1999.90;999.90;;;13.30;99.90;;;;;;6651721;88;20216;-77
2022/10/25 01:26:18;;;;;;;1999.90;999.90;;;13.30;99.90;;;;;;6674311;88;20700;-77
2022/10/25 01:36:50;;;;;;;1999.90;999.90;;;13.20;99.90;;;;;;6651870;89;20188;-77
2022/10/25 01:47:02;;;;;;;1999.90;999.90;;;13.20;99.90;;;;;;6648938;88;20166;-77
2022/10/25 01:57:19;;;;;;;1999.90;999.90;;;13.10;99.90;;;;;;6645765;88;20252;-77
2022/10/25 02:07:23;;;;;;;1999.90;999.90;;;13.10;99.90;;;;;;6652015;88;20341;-77
2022/10/25 02:17:26;;;;;;;1999.90;999.90;;;13.40;99.90;;;;;;6655476;89;20212;-77
2022/10/25 02:27:29;;;;;;;1999.90;999.90;;;13.50;99.90;;;;;;6648873;88;20658;-77
2022/10/25 02:37:31;;;;;;;1999.90;999.90;;;13.70;99.90;;;;;;6653038;88;20226;-77
2022/10/25 02:47:31;;;;;;;1999.90;999.90;;;13.60;99.90;;;;;;6654508;88;20224;-77
2022/10/25 02:57:33;;;;;;;1999.90;999.90;;;13.50;99.90;;;;;;6643412;88;20334;-77
2022/10/25 03:07:34;;;;;;;1999.90;999.90;;;13.50;99.90;;;;;;6648361;88;20306;-77
2022/10/25 03:17:34;;;;;;;1999.90;999.90;;;13.20;99.90;;;;;;6649037;88;20733;-77
2022/10/25 03:27:35;;;;;;;1999.90;999.90;;;13.30;99.90;;;;;;6652594;88;20222;-77
2022/10/25 03:37:35;;;;;;;1999.90;999.90;;;13.20;99.90;;;;;;6651919;89;20206;-77
2022/10/25 03:47:36;;;;;;;1999.90;999.90;;;13.20;99.90;;;;;;6648086;89;20218;-77
2022/10/25 03:57:37;;;;;;;1999.90;999.90;;;13.40;99.90;;;;;;6655177;88;20261;-77
2022/10/25 04:07:37;;;;;;;1999.90;999.90;;;13.40;99.90;;;;;;6650097;88;20239;-77
2022/10/25 04:17:38;;;;;;;1999.90;999.90;;;13.30;99.90;;;;;;6651867;88;20217;-77
2022/10/25 04:27:38;;;;;;;1999.90;999.90;;;13.20;99.90;;;;;;6667843;77;20193;-75
2022/10/25 04:37:39;;;;;;;1999.90;999.90;;;13.10;99.90;;;;;;6720803;88;20193;-75
2022/10/25 04:47:39;;;;;;;1999.90;999.90;;;13.10;99.90;;;;;;6721137;88;20209;-76
2022/10/25 04:57:40;;;;;;;1999.90;999.90;;;13.00;99.90;;;;;;6716128;88;20682;-75
2022/10/25 05:07:40;;;;;;;1999.90;999.90;;;13.00;99.90;;;;;;6721507;88;20675;-76
2022/10/25 05:17:41;;;;;;;1999.90;999.90;;;12.80;99.90;;;;;;6725079;88;20210;-75
2022/10/25 05:27:41;;;;;;;1999.90;999.90;;;12.70;99.90;;;;;;6724565;88;20256;-76
2022/10/25 05:37:42;;;;;;;1999.90;999.90;;;12.70;99.90;;;;;;6719589;88;20324;-75
2022/10/25 05:47:42;;;;;;;1999.90;999.90;;;12.80;99.90;;;;;;6718866;88;20181;-76
2022/10/25 05:57:49;;;;;;;1999.90;999.90;;;12.80;99.90;;;;;;6727364;88;20255;-76
2022/10/25 06:07:50;;;;;;;1999.90;999.90;;;12.90;99.90;;;;;;6716515;88;20649;-76
2022/10/25 06:17:50;;;;;;;1999.90;999.90;;;12.90;99.90;;;;;;6731960;88;20201;-76
2022/10/25 06:27:51;;;;;;;1999.90;999.90;;;12.90;99.90;;;;;;6724152;88;20190;-76
2022/10/25 06:37:51;;;;;;;1999.90;999.90;;;12.90;99.90;;;;;;6722255;88;20199;-74
2022/10/25 06:47:52;;;;;;;1999.90;999.90;;;12.70;99.90;;;;;;6720169;88;20210;-73
2022/10/25 06:57:55;;;;;;;1999.90;999.90;;;12.90;99.90;;;;;;6717605;88;20403;-74
2022/10/25 07:07:55;;;;;;;1999.90;999.90;;;12.90;99.90;;;;;;6722740;88;20224;-74
2022/10/25 07:17:56;;;;;;;1999.90;999.90;;;13.00;99.90;;;;;;6734454;88;20529;-75
2022/10/25 07:27:56;;;;;;;1999.90;999.90;;;13.20;99.90;;;;;;6725724;88;20704;-74
2022/10/25 07:37:57;;;;;;;1999.90;999.90;;;13.40;99.90;;;;;;6721821;88;20659;-74
2022/10/25 07:47:57;;;;;;;1999.90;999.90;;;13.60;99.90;;;;;;6718947;88;20246;-74
2022/10/25 07:58:00;;;;;;;1999.90;999.90;;;14.00;99.90;;;;;;6721091;88;20230;-75
2022/10/25 08:08:00;;;;;;;1999.90;999.90;;;14.00;99.90;;;;;;6723239;88;20184;-75
2022/10/25 08:18:02;;;;;;;1999.90;999.90;;;14.20;99.90;;;;;;6718066;88;20252;-75
2022/10/25 08:28:03;;;;;;;1999.90;999.90;;;14.60;99.90;;;;;;6725064;88;20181;-75
2022/10/25 08:38:04;;;;;;;1999.90;999.90;;;15.20;99.90;;;;;;6723772;88;20176;-75
2022/10/25 08:48:10;;;;;;;1999.90;999.90;;;15.60;99.90;;;;;;6722353;88;20308;-76
2022/10/25 08:58:20;;;;;;;1999.90;999.90;;;15.90;99.90;;;;;;6723445;88;20712;-76
2022/10/25 09:08:47;;;;;;;1999.90;999.90;;;16.00;99.90;;;;;;6722564;88;20655;-75
2022/10/25 09:18:56;;;;;;;1999.90;999.90;;;16.30;99.90;;;;;;6719967;88;20189;-75
2022/10/25 09:29:22;;;;;;;1999.90;999.90;;;16.50;99.90;;;;;;6723155;88;20715;-75
2022/10/25 09:39:34;;;;;;;1999.90;999.90;;;16.70;99.90;;;;;;6721074;88;20331;-76
2022/10/25 09:49:53;;;;;;;1999.90;999.90;;;16.90;99.90;;;;;;6721327;88;20208;-76
2022/10/25 09:59:54;;;;;;;1999.90;999.90;;;16.90;99.90;;;;;;6719163;88;20771;-77
2022/10/25 10:09:59;;;;;;;1999.90;999.90;;;16.90;99.90;;;;;;6720521;88;20250;-76
2022/10/25 10:20:10;;;;;;;1999.90;999.90;;;16.80;99.90;;;;;;6722856;88;20181;-75
2022/10/25 10:30:29;;;;;;;1999.90;999.90;;;16.70;99.90;;;;;;6738122;77;20624;-76
2022/10/25 10:40:30;;;;;;;1999.90;999.90;;;16.80;99.90;;;;;;6758647;87;20286;-78
2022/10/25 10:50:31;;;;;;;1999.90;999.90;;;17.00;99.90;;;;;;6744730;88;20217;-78
2022/10/25 11:00:33;;;;;;;1999.90;999.90;;;17.60;99.90;;;;;;6745697;87;22648;-78
2022/10/25 11:10:37;;;;;;;1999.90;999.90;;;18.10;99.90;;;;;;6752683;87;20192;-78
2022/10/25 11:20:50;;;;;;;1999.90;999.90;;;18.20;99.90;;;;;;6749030;88;20307;-76
2022/10/25 11:31:09;;;;;;;1999.90;999.90;;;18.10;99.90;;;;;;6752959;88;20254;-76
2022/10/25 11:41:42;;;;;;;1999.90;999.90;;;17.90;99.90;;;;;;6750249;88;20668;-77
2022/10/25 11:52:06;;;;;;;1999.90;999.90;;;17.60;99.90;;;;;;6749811;87;20188;-77
2022/10/25 12:02:24;;;;;;;1999.90;999.90;;;17.50;99.90;;;;;;6740972;88;20797;-78
2022/10/25 12:12:53;;;;;;;1999.90;999.90;;;17.80;99.90;;;;;;6754991;87;20192;-77
2022/10/25 12:22:57;;;;;;;1999.90;999.90;;;18.00;99.90;;;;;;6750335;88;20226;-77
2022/10/25 12:33:33;;;;;;;1999.90;999.90;;;18.10;99.90;;;;;;6758962;87;20200;-77
2022/10/25 12:43:52;;;;;;;1999.90;999.90;;;18.30;99.90;;;;;;6749283;87;20208;-77
2022/10/25 12:54:30;;;;;;;1999.90;999.90;;;18.20;99.90;;;;;;6754791;87;20184;-77
2022/10/25 13:04:42;;;;;;;1999.90;999.90;;;18.20;99.90;;;;;;6750026;87;20714;-77
2022/10/25 13:14:49;;;;;;;1999.90;999.90;;;18.00;99.90;;;;;;6756805;87;20243;-77
2022/10/25 13:24:51;;;;;;;1999.90;999.90;;;19.10;99.90;;;;;;6751544;88;20242;-77
2022/10/25 13:34:51;;;;;;;1999.90;999.90;;;21.20;99.90;;;;;;6749949;87;20212;-77
2022/10/25 13:45:01;;;;;;;1999.90;999.90;;;21.20;99.90;;;;;;6748700;87;20639;-77
2022/10/25 13:55:05;;;;;;;1999.90;999.90;;;20.30;99.90;;;;;;6752827;87;20688;-77
2022/10/25 14:05:09;;;;;;;1999.90;999.90;;;19.80;99.90;;;;;;6747093;88;20654;-76
2022/10/25 14:15:29;;;;;;;1999.90;999.90;;;19.50;99.90;;;;;;6749568;87;20501;-76
2022/10/25 14:25:36;;;;;;;1999.90;999.90;;;18.80;99.90;;;;;;6751709;87;20994;-76
2022/10/25 14:35:48;;;;;;;1999.90;999.90;;;18.90;99.90;;;;;;6751427;87;20200;-76
2022/10/25 14:45:59;;;;;;;1999.90;999.90;;;18.60;99.90;;;;;;6752290;88;20234;-76
2022/10/25 14:56:02;;;;;;;1999.90;999.90;;;18.60;99.90;;;;;;6746743;88;20253;-76
2022/10/25 15:06:04;;;;;;;1999.90;999.90;;;18.50;99.90;;;;;;6751670;87;20189;-76
2022/10/25 15:16:27;;;;;;;1999.90;999.90;;;18.50;99.90;;;;;;6752613;87;20202;-76
2022/10/25 15:26:29;;;;;;;1999.90;999.90;;;18.30;99.90;;;;;;6745660;88;20324;-76
2022/10/25 15:36:32;;;;;;;1999.90;999.90;;;18.00;99.90;;;;;;6753269;87;20233;-76
2022/10/25 15:46:33;;;;;;;1999.90;999.90;;;17.70;99.90;;;;;;6753213;87;20205;-76
2022/10/25 15:56:34;;;;;;;1999.90;999.90;;;17.40;99.90;;;;;;6756625;87;20646;-76
2022/10/25 16:06:34;;;;;;;1999.90;999.90;;;17.10;99.90;;;;;;6751085;88;20310;-76
2022/10/25 16:16:35;;;;;;;1999.90;999.90;;;16.80;99.90;;;;;;6750175;88;20475;-76
2022/10/25 16:26:41;;;;;;;1999.90;999.90;;;16.30;99.90;;;;;;6757137;87;20241;-78
2022/10/25 16:36:42;;;;;;;1999.90;999.90;;;15.90;99.90;;;;;;6751139;87;21004;-78
2022/10/25 16:46:44;;;;;;;1999.90;999.90;;;15.60;99.90;;;;;;6751454;87;20185;-78
2022/10/25 16:56:45;;;;;;;1999.90;999.90;;;15.40;99.90;;;;;;6753995;87;20791;-78
2022/10/25 17:06:45;;;;;;;1999.90;999.90;;;15.20;99.90;;;;;;6750086;87;20200;-77
2022/10/25 17:16:46;;;;;;;1999.90;999.90;;;15.00;99.90;;;;;;6751380;87;20309;-78
2022/10/25 17:26:46;;;;;;;1999.90;999.90;;;14.80;99.90;;;;;;6748537;87;20239;-77
2022/10/25 17:36:50;;;;;;;1999.90;999.90;;;14.60;99.90;;;;;;6749911;87;20352;-78
2022/10/25 17:46:51;;;;;;;1999.90;999.90;;;14.40;99.90;;;;;;6746778;87;20188;-78
2022/10/25 17:56:55;;;;;;;1999.90;999.90;;;14.10;99.90;;;;;;6751958;87;20717;-77
2022/10/25 18:06:55;;;;;;;1999.90;999.90;;;14.00;99.90;;;;;;6744229;87;20199;-78
2022/10/25 18:16:56;;;;;;;1999.90;999.90;;;13.80;99.90;;;;;;6753298;87;20209;-78
2022/10/25 18:26:57;;;;;;;1999.90;999.90;;;13.70;99.90;;;;;;6754713;87;20220;-77
2022/10/25 18:36:57;;;;;;;1999.90;999.90;;;13.70;99.90;;;;;;6751041;87;20284;-78
2022/10/25 18:46:58;;;;;;;1999.90;999.90;;;13.70;99.90;;;;;;6749211;87;20200;-77
2022/10/25 18:56:58;;;;;;;1999.90;999.90;;;13.50;99.90;;;;;;6750942;87;20720;-78
2022/10/25 19:06:59;;;;;;;1999.90;999.90;;;13.40;99.90;;;;;;6754475;87;20720;-78
2022/10/25 19:16:59;;;;;;;1999.90;999.90;;;13.10;99.90;;;;;;6752632;88;20185;-77
2022/10/25 19:27:00;;;;;;;1999.90;999.90;;;13.00;99.90;;;;;;6743433;88;20262;-77
2022/10/25 19:37:03;;;;;;;1999.90;999.90;;;13.00;99.90;;;;;;6750523;88;20284;-79
2022/10/25 19:47:04;;;;;;;1999.90;999.90;;;13.00;99.90;;;;;;6749148;88;20190;-78
2022/10/25 19:57:05;;;;;;;1999.90;999.90;;;12.90;99.90;;;;;;6753725;88;20190;-78
2022/10/25 20:07:06;;;;;;;1999.90;999.90;;;12.90;99.90;;;;;;6758326;87;20692;-79
2022/10/25 20:17:06;;;;;;;1999.90;999.90;;;12.80;99.90;;;;;;6774231;87;20187;-78
2022/10/25 20:27:07;;;;;;;1999.90;999.90;;;12.70;99.90;;;;;;6759271;87;20192;-78
2022/10/25 20:37:09;;;;;;;1999.90;999.90;;;12.50;99.90;;;;;;6739553;88;20184;-79
2022/10/25 20:47:09;;;;;;;1999.90;999.90;;;12.40;99.90;;;;;;6743166;88;20266;-77
2022/10/25 20:57:10;;;;;;;1999.90;999.90;;;12.30;99.90;;;;;;6750152;88;20729;-77
2022/10/25 21:07:10;;;;;;;1999.90;999.90;;;12.30;99.90;;;;;;6742819;88;20188;-77
2022/10/25 21:17:11;;;;;;;1999.90;999.90;;;12.40;99.90;;;;;;6747515;87;20228;-77
2022/10/25 21:27:11;;;;;;;1999.90;999.90;;;12.50;99.90;;;;;;6754906;88;20226;-77
2022/10/25 21:37:12;;;;;;;1999.90;999.90;;;12.50;99.90;;;;;;6751447;88;20299;-77
2022/10/25 21:47:13;;;;;;;1999.90;999.90;;;12.60;99.90;;;;;;6746167;87;20197;-77
2022/10/25 21:57:13;;;;;;;1999.90;999.90;;;12.70;99.90;;;;;;6749839;88;20234;-77
2022/10/25 22:07:14;;;;;;;1999.90;999.90;;;12.70;99.90;;;;;;6750501;88;20945;-79
2022/10/25 22:17:14;;;;;;;1999.90;999.90;;;12.80;99.90;;;;;;6745924;88;20640;-79
2022/10/25 22:27:15;;;;;;;1999.90;999.90;;;12.90;99.90;;;;;;6755650;88;20191;-79
2022/10/25 22:37:19;;;;;;;1999.90;999.90;;;13.00;99.90;;;;;;6751215;87;20314;-78
2022/10/25 22:47:20;;;;;;;1999.90;999.90;;;13.10;99.90;;;;;;6861098;76;20295;-76
2022/10/25 22:57:20;;;;;;;1999.90;999.90;;;13.10;99.90;;;;;;6640281;89;20313;-77
2022/10/25 23:07:21;;;;;;;1999.90;999.90;;;13.10;99.90;;;;;;6634338;76;20675;-77
2022/10/25 23:17:21;;;;;;;1999.90;999.90;;;13.30;99.90;;;;;;6626011;88;20237;-76
2022/10/25 23:27:22;;;;;;;1999.90;999.90;;;13.40;99.90;;;;;;6630676;88;20196;-76
2022/10/25 23:37:22;;;;;;;1999.90;999.90;;;13.50;99.90;;;;;;6638382;89;20719;-77
2022/10/25 23:47:23;;;;;;;1999.90;999.90;;;13.50;99.90;;;;;;6651128;89;20624;-77
2022/10/25 23:57:23;;;;;;;1999.90;999.90;;;13.50;99.90;;;;;;6632986;89;20627;-77
